Time,TemperatureF,DewpointF,PressureIn,WindDirection,WindDirectionDegrees,WindSpeedMPH,WindSpeedGustMPH,Humidity,HourlyPrecipIn,Conditions,Clouds,dailyrainin,SolarRadiationWatts/m^2,SoftwareType,DateUTC
2013-02-09 00:11:00,53.0,48.0,-100.00,East,80,4.0,9.0,83,0.00,,,0.00,0.000000,,2013-02-09 07:11:00,
2013-02-09 00:21:00,53.0,48.0,-100.00,East,80,4.0,9.0,83,0.00,,,0.00,0.000000,,2013-02-09 07:21:00,
2013-02-09 00:31:00,53.0,48.0,-100.00,East,80,4.0,9.0,83,0.00,,,0.00,0.000000,,2013-02-09 07:31:00,
2013-02-09 00:42:00,53.0,48.0,-100.00,East,80,4.0,9.0,83,0.00,,,0.00,0.000000,,2013-02-09 07:42:00,
2013-02-09 00:51:00,53.0,48.0,-100.00,East,80,4.0,9.0,83,0.00,,,0.00,0.000000,,2013-02-09 07:51:00,
2013-02-09 01:11:00,53.0,49.0,-100.00,East,83,4.0,10.0,85,0.00,,,0.00,0.000000,,2013-02-09 08:11:00,
2013-02-09 01:21:00,53.0,49.0,-100.00,East,83,4.0,10.0,85,0.00,,,0.00,0.000000,,2013-02-09 08:21:00,
2013-02-09 01:31:00,53.0,49.0,-100.00,East,83,4.0,10.0,85,0.00,,,0.00,0.000000,,2013-02-09 08:31:00,
2013-02-09 01:42:00,53.0,49.0,-100.00,East,83,4.0,10.0,85,0.00,,,0.00,0.000000,,2013-02-09 08:42:00,
2013-02-09 01:52:00,53.0,49.0,-100.00,East,83,4.0,10.0,85,0.00,,,0.00,0.000000,,2013-02-09 08:52:00,
2013-02-09 02:11:00,53.0,49.0,-100.00,East,86,5.0,9.0,86,0.00,,,0.00,0.000000,,2013-02-09 09:11:00,
2013-02-09 02:21:00,53.0,49.0,-100.00,East,86,5.0,9.0,86,0.00,,,0.00,0.000000,,2013-02-09 09:21:00,
2013-02-09 02:32:00,53.0,49.0,-100.00,East,86,5.0,9.0,86,0.00,,,0.00,0.000000,,2013-02-09 09:32:00,
2013-02-09 02:42:00,53.0,49.0,-100.00,East,86,5.0,9.0,86,0.00,,,0.00,0.000000,,2013-02-09 09:42:00,
2013-02-09 02:51:00,53.0,49.0,-100.00,East,86,5.0,9.0,86,0.00,,,0.00,0.000000,,2013-02-09 09:51:00,
2013-02-09 03:21:00,53.0,49.0,-100.00,East,86,5.0,9.0,86,0.00,,,0.00,0.000000,,2013-02-09 10:21:00,
2013-02-09 03:32:00,53.0,49.0,-100.00,East,86,5.0,9.0,86,0.00,,,0.00,0.000000,,2013-02-09 10:32:00,
2013-02-09 03:42:00,53.0,49.0,-100.00,East,86,5.0,9.0,86,0.00,,,0.00,0.000000,,2013-02-09 10:42:00,
2013-02-09 03:51:00,53.0,49.0,-100.00,East,86,5.0,9.0,86,0.00,,,0.00,0.000000,,2013-02-09 10:51:00,
2013-02-09 04:11:00,53.0,49.0,-100.00,East,92,5.0,9.0,87,0.00,,,0.00,0.000000,,2013-02-09 11:11:00,
2013-02-09 04:22:00,53.0,49.0,-100.00,East,92,5.0,9.0,87,0.00,,,0.00,0.000000,,2013-02-09 11:22:00,
2013-02-09 04:32:00,53.0,49.0,-100.00,East,92,5.0,9.0,87,0.00,,,0.00,0.000000,,2013-02-09 11:32:00,
2013-02-09 04:41:00,53.0,49.0,-100.00,East,92,5.0,9.0,87,0.00,,,0.00,0.000000,,2013-02-09 11:41:00,
2013-02-09 04:52:00,53.0,49.0,-100.00,East,92,5.0,9.0,87,0.00,,,0.00,0.000000,,2013-02-09 11:52:00,
2013-02-09 05:11:00,54.0,50.0,-100.00,East,99,8.0,12.0,86,0.00,,,0.00,0.000000,,2013-02-09 12:11:00,
2013-02-09 05:21:00,54.0,50.0,-100.00,East,99,8.0,12.0,86,0.00,,,0.00,0.000000,,2013-02-09 12:21:00,
2013-02-09 05:32:00,54.0,50.0,-100.00,East,99,8.0,12.0,86,0.00,,,0.00,0.000000,,2013-02-09 12:32:00,
2013-02-09 05:42:00,54.0,50.0,-100.00,East,99,8.0,12.0,86,0.00,,,0.00,0.000000,,2013-02-09 12:42:00,
2013-02-09 05:52:00,54.0,50.0,-100.00,East,99,8.0,12.0,86,0.00,,,0.00,0.000000,,2013-02-09 12:52:00,
2013-02-09 06:22:00,55.0,51.0,-100.00,East,95,10.0,16.0,85,0.00,,,0.00,0.000000,,2013-02-09 13:22:00,
2013-02-09 06:32:00,55.0,51.0,-100.00,East,95,10.0,16.0,85,0.00,,,0.00,0.000000,,2013-02-09 13:32:00,
2013-02-09 06:42:00,55.0,51.0,-100.00,East,95,10.0,16.0,85,0.00,,,0.00,0.000000,,2013-02-09 13:42:00,
2013-02-09 06:52:00,55.0,51.0,-100.00,East,95,10.0,16.0,85,0.00,,,0.00,0.000000,,2013-02-09 13:52:00,
2013-02-09 07:11:00,56.0,52.0,-100.00,ESE,111,8.0,14.0,86,0.00,,,0.00,29.000000,,2013-02-09 14:11:00,
2013-02-09 07:21:00,56.0,52.0,-100.00,ESE,111,8.0,14.0,86,0.00,,,0.00,29.000000,,2013-02-09 14:21:00,
2013-02-09 07:32:00,56.0,52.0,-100.00,ESE,111,8.0,14.0,86,0.00,,,0.00,29.000000,,2013-02-09 14:32:00,
2013-02-09 07:42:00,56.0,52.0,-100.00,ESE,111,8.0,14.0,86,0.00,,,0.00,29.000000,,2013-02-09 14:42:00,
2013-02-09 07:52:00,56.0,52.0,-100.00,ESE,111,8.0,14.0,86,0.00,,,0.00,29.000000,,2013-02-09 14:52:00,
2013-02-09 08:11:00,56.0,52.0,-100.00,ESE,115,8.0,13.0,87,0.00,,,0.00,53.000000,,2013-02-09 15:11:00,
2013-02-09 08:21:00,56.0,52.0,-100.00,ESE,115,8.0,13.0,87,0.00,,,0.00,53.000000,,2013-02-09 15:21:00,
2013-02-09 08:32:00,56.0,52.0,-100.00,ESE,115,8.0,13.0,87,0.00,,,0.00,53.000000,,2013-02-09 15:32:00,
2013-02-09 08:42:00,56.0,52.0,-100.00,ESE,115,8.0,13.0,87,0.00,,,0.00,53.000000,,2013-02-09 15:42:00,
2013-02-09 08:51:00,56.0,52.0,-100.00,ESE,115,8.0,13.0,87,0.00,,,0.00,53.000000,,2013-02-09 15:51:00,
2013-02-09 09:11:00,58.0,54.0,-100.00,ESE,108,10.0,15.0,85,0.00,,,-99.99,183.000000,,2013-02-09 16:11:00,
2013-02-09 09:22:00,58.0,54.0,-100.00,ESE,108,10.0,15.0,85,0.00,,,-99.99,183.000000,,2013-02-09 16:22:00,
2013-02-09 09:31:00,58.0,54.0,-100.00,ESE,108,10.0,15.0,85,0.00,,,-99.99,183.000000,,2013-02-09 16:31:00,
2013-02-09 09:42:00,58.0,54.0,-100.00,ESE,108,10.0,15.0,85,0.00,,,-99.99,183.000000,,2013-02-09 16:42:00,
2013-02-09 09:51:00,58.0,54.0,-100.00,ESE,108,10.0,15.0,85,0.00,,,-99.99,183.000000,,2013-02-09 16:51:00,
2013-02-09 10:21:00,60.0,55.0,-100.00,ESE,110,10.0,17.0,83,0.00,,,0.00,280.000000,,2013-02-09 17:21:00,
2013-02-09 10:32:00,60.0,55.0,-100.00,ESE,110,10.0,17.0,83,0.00,,,0.00,280.000000,,2013-02-09 17:32:00,
2013-02-09 10:42:00,60.0,55.0,-100.00,ESE,110,10.0,17.0,83,0.00,,,0.00,280.000000,,2013-02-09 17:42:00,
2013-02-09 10:52:00,60.0,55.0,-100.00,ESE,110,10.0,17.0,83,0.00,,,0.00,280.000000,,2013-02-09 17:52:00,
2013-02-09 11:12:00,63.0,57.0,-100.00,ESE,109,10.0,15.0,81,0.00,,,0.00,360.000000,,2013-02-09 18:12:00,
2013-02-09 11:23:00,63.0,57.0,-100.00,ESE,109,10.0,15.0,81,0.00,,,0.00,360.000000,,2013-02-09 18:23:00,
2013-02-09 11:32:00,63.0,57.0,-100.00,ESE,109,10.0,15.0,81,0.00,,,0.00,360.000000,,2013-02-09 18:32:00,
2013-02-09 11:42:00,63.0,57.0,-100.00,ESE,109,10.0,15.0,81,0.00,,,0.00,360.000000,,2013-02-09 18:42:00,
2013-02-09 11:51:00,63.0,57.0,-100.00,ESE,109,10.0,15.0,81,0.00,,,0.00,360.000000,,2013-02-09 18:51:00,
2013-02-09 12:11:00,63.0,56.0,-100.00,ESE,118,11.0,17.0,77,0.00,,,0.00,333.000000,,2013-02-09 19:11:00,
2013-02-09 12:22:00,63.0,56.0,-100.00,ESE,118,11.0,17.0,77,0.00,,,0.00,333.000000,,2013-02-09 19:22:00,
2013-02-09 12:32:00,63.0,56.0,-100.00,ESE,118,11.0,17.0,77,0.00,,,0.00,333.000000,,2013-02-09 19:32:00,
2013-02-09 12:42:00,63.0,56.0,-100.00,ESE,118,11.0,17.0,77,0.00,,,0.00,333.000000,,2013-02-09 19:42:00,
2013-02-09 12:52:00,63.0,56.0,-100.00,ESE,118,11.0,17.0,77,0.00,,,0.00,333.000000,,2013-02-09 19:52:00,
2013-02-09 13:11:00,68.0,60.0,-100.00,SE,137,10.0,17.0,75,0.00,,,0.00,384.000000,,2013-02-09 20:11:00,
2013-02-09 13:21:00,68.0,60.0,-100.00,SE,137,10.0,17.0,75,0.00,,,0.00,384.000000,,2013-02-09 20:21:00,
2013-02-09 13:32:00,68.0,60.0,-100.00,SE,137,10.0,17.0,75,0.00,,,0.00,384.000000,,2013-02-09 20:32:00,
2013-02-09 13:42:00,68.0,60.0,-100.00,SE,137,10.0,17.0,75,0.00,,,0.00,384.000000,,2013-02-09 20:42:00,
2013-02-09 13:52:00,68.0,60.0,-100.00,SE,137,10.0,17.0,75,0.00,,,0.00,384.000000,,2013-02-09 20:52:00,
2013-02-09 14:11:00,68.0,59.0,-100.00,ESE,119,10.0,19.0,74,0.00,,,0.00,427.000000,,2013-02-09 21:11:00,
2013-02-09 14:21:00,68.0,59.0,-100.00,ESE,119,10.0,19.0,74,0.00,,,0.00,427.000000,,2013-02-09 21:21:00,
2013-02-09 14:32:00,68.0,59.0,-100.00,ESE,119,10.0,19.0,74,0.00,,,0.00,427.000000,,2013-02-09 21:32:00,
2013-02-09 14:42:00,68.0,59.0,-100.00,ESE,119,10.0,19.0,74,0.00,,,0.00,427.000000,,2013-02-09 21:42:00,
2013-02-09 14:52:00,68.0,59.0,-100.00,ESE,119,10.0,19.0,74,0.00,,,0.00,427.000000,,2013-02-09 21:52:00,
2013-02-09 15:11:00,69.0,61.0,-100.00,SE,127,11.0,20.0,75,0.00,,,0.00,497.000000,,2013-02-09 22:11:00,
2013-02-09 15:21:00,69.0,61.0,-100.00,SE,127,11.0,20.0,75,0.00,,,0.00,497.000000,,2013-02-09 22:21:00,
2013-02-09 15:32:00,69.0,61.0,-100.00,SE,127,11.0,20.0,75,0.00,,,0.00,497.000000,,2013-02-09 22:32:00,
2013-02-09 15:42:00,69.0,61.0,-100.00,SE,127,11.0,20.0,75,0.00,,,0.00,497.000000,,2013-02-09 22:42:00,
2013-02-09 15:51:00,69.0,61.0,-100.00,SE,127,11.0,20.0,75,0.00,,,0.00,497.000000,,2013-02-09 22:51:00,
2013-02-09 16:11:00,67.0,59.0,-100.00,SE,135,9.0,18.0,75,0.00,,,0.00,256.000000,,2013-02-09 23:11:00,
2013-02-09 16:21:00,67.0,59.0,-100.00,SE,135,9.0,18.0,75,0.00,,,0.00,256.000000,,2013-02-09 23:21:00,
2013-02-09 16:32:00,67.0,59.0,-100.00,SE,135,9.0,18.0,75,0.00,,,0.00,256.000000,,2013-02-09 23:32:00,
2013-02-09 16:42:00,67.0,59.0,-100.00,SE,135,9.0,18.0,75,0.00,,,0.00,256.000000,,2013-02-09 23:42:00,
2013-02-09 16:52:00,67.0,59.0,-100.00,SE,135,9.0,18.0,75,0.00,,,0.00,256.000000,,2013-02-09 23:52:00,
2013-02-09 17:22:00,66.0,61.0,-100.00,SE,124,9.0,15.0,83,0.00,,,0.00,26.000000,,2013-02-10 00:22:00,
2013-02-09 17:32:00,66.0,61.0,-100.00,SE,124,9.0,15.0,83,0.00,,,0.00,26.000000,,2013-02-10 00:32:00,
2013-02-09 17:42:00,66.0,61.0,-100.00,SE,124,9.0,15.0,83,0.00,,,0.00,26.000000,,2013-02-10 00:42:00,
2013-02-09 17:51:00,66.0,61.0,-100.00,SE,124,9.0,15.0,83,0.00,,,0.00,26.000000,,2013-02-10 00:51:00,
2013-02-09 18:12:00,65.0,61.0,-100.00,ESE,123,11.0,16.0,86,0.00,,,0.00,1.000000,,2013-02-10 01:12:00,
2013-02-09 18:21:00,65.0,61.0,-100.00,ESE,123,11.0,16.0,86,0.00,,,0.00,1.000000,,2013-02-10 01:21:00,
2013-02-09 18:32:00,65.0,61.0,-100.00,ESE,123,11.0,16.0,86,0.00,,,0.00,1.000000,,2013-02-10 01:32:00,
2013-02-09 18:42:00,65.0,61.0,-100.00,ESE,123,11.0,16.0,86,0.00,,,0.00,1.000000,,2013-02-10 01:42:00,
2013-02-09 18:51:00,65.0,61.0,-100.00,ESE,123,11.0,16.0,86,0.00,,,0.00,1.000000,,2013-02-10 01:51:00,
2013-02-09 19:22:00,64.0,60.0,-100.00,ESE,120,9.0,17.0,88,0.00,,,0.00,0.000000,,2013-02-10 02:22:00,
2013-02-09 19:32:00,64.0,60.0,-100.00,ESE,120,9.0,17.0,88,0.00,,,0.00,0.000000,,2013-02-10 02:32:00,
2013-02-09 19:42:00,64.0,60.0,-100.00,ESE,120,9.0,17.0,88,0.00,,,0.00,0.000000,,2013-02-10 02:42:00,
2013-02-09 19:52:00,64.0,60.0,-100.00,ESE,120,9.0,17.0,88,0.00,,,0.00,0.000000,,2013-02-10 02:52:00,
2013-02-09 20:11:00,64.0,61.0,-100.00,ESE,121,10.0,15.0,89,0.00,,,0.00,0.000000,,2013-02-10 03:11:00,
2013-02-09 20:21:00,64.0,61.0,-100.00,ESE,121,10.0,15.0,89,0.00,,,0.00,0.000000,,2013-02-10 03:21:00,
2013-02-09 20:32:00,64.0,61.0,-100.00,ESE,121,10.0,15.0,89,0.00,,,0.00,0.000000,,2013-02-10 03:32:00,
2013-02-09 20:41:00,64.0,61.0,-100.00,ESE,121,10.0,15.0,89,0.00,,,0.00,0.000000,,2013-02-10 03:41:00,
2013-02-09 20:51:00,64.0,61.0,-100.00,ESE,121,10.0,15.0,89,0.00,,,0.00,0.000000,,2013-02-10 03:51:00,
2013-02-09 21:11:00,64.0,61.0,-100.00,ESE,114,6.0,13.0,91,0.00,,,0.00,0.000000,,2013-02-10 04:11:00,
2013-02-09 21:21:00,64.0,61.0,-100.00,ESE,114,6.0,13.0,91,0.00,,,0.00,0.000000,,2013-02-10 04:21:00,
2013-02-09 21:32:00,64.0,61.0,-100.00,ESE,114,6.0,13.0,91,0.00,,,0.00,0.000000,,2013-02-10 04:32:00,
2013-02-09 21:42:00,64.0,61.0,-100.00,ESE,114,6.0,13.0,91,0.00,,,0.00,0.000000,,2013-02-10 04:42:00,
2013-02-09 21:51:00,64.0,61.0,-100.00,ESE,114,6.0,13.0,91,0.00,,,0.00,0.000000,,2013-02-10 04:51:00,
2013-02-09 22:22:00,65.0,63.0,-100.00,ESE,122,9.0,13.0,92,0.00,,,0.00,0.000000,,2013-02-10 05:22:00,
2013-02-09 22:31:00,65.0,63.0,-100.00,ESE,122,9.0,13.0,92,0.00,,,0.00,0.000000,,2013-02-10 05:31:00,
2013-02-09 22:41:00,65.0,63.0,-100.00,ESE,122,9.0,13.0,92,0.00,,,0.00,0.000000,,2013-02-10 05:41:00,
2013-02-09 22:52:00,65.0,63.0,-100.00,ESE,122,9.0,13.0,92,0.00,,,0.00,0.000000,,2013-02-10 05:52:00,
2013-02-09 23:21:00,66.0,64.0,-100.00,SE,124,8.0,13.0,92,0.00,,,0.00,0.000000,,2013-02-10 06:21:00,
2013-02-09 23:32:00,66.0,64.0,-100.00,SE,124,8.0,13.0,92,0.00,,,0.00,0.000000,,2013-02-10 06:32:00,
2013-02-09 23:42:00,66.0,64.0,-100.00,SE,124,8.0,13.0,92,0.00,,,0.00,0.000000,,2013-02-10 06:42:00,
2013-02-09 23:51:00,66.0,64.0,-100.00,SE,124,8.0,13.0,92,0.00,,,0.00,0.000000,,2013-02-10 06:51:00,